Washington Heights, Pennsylvania
Current Conditions -  °F | °C
As of 6:56 PM on Wednesday 26 Nov 2014 (Local Time) from KCXY Reporting Station
Unknown Precip Unknown Precip  
Wind Chill: 28°   Ceiling: 1700
Heat Index: 35°   Visibility: 10mi
Dew Point: 31°   Wind: 9mph
Humidity: 85%   Direction: 310°NW
Pressure: 29.95"   Gusts: NA
Location:  40.2478°N, 76.9006°W
Report Text: KCXY 262356Z AUTO 31008KT 10SM UP FEW011 BKN017 OVC043 02/M01 A2995 RMK AO2 UPB23E28B48SNE23 SLP146 P0005 60024 T00171006 10017 20006 50003
Loading
Personal Weather Stations






























Interactive Weather Map New forecast layout! Learn more

10-Day Weather Forecast

Advertisements
Track Severe Weather on mobile